AirNav   Air Wisconsin Up To $57,000 Bonus
 
 667 users online  

PN28 Campbell's Heliport
Doylestown, Pennsylvania, USA

GOING TO DOYLESTOWN?


FAA INFORMATION EFFECTIVE 02 JANUARY 2020

Location

FAA Identifier: PN28
Lat/Long: 40-17-11.3800N 075-08-42.6100W
40-17.189667N 075-08.710167W
40.2864944,-75.1451694
(estimated)
Elevation: 240 ft. / 73 m (estimated)
Variation: 12W (1995)
From city: 2 miles N of DOYLESTOWN, PA
Time zone: UTC -5 (UTC -4 during Daylight Saving Time)
Zip code: 18901

Heliport Operations

Heliport use: Private use. Permission required prior to landing
Activation date: 04/1999
Control tower: no
ARTCC: NEW YORK CENTER
FSS: WILLIAMSPORT FLIGHT SERVICE STATION
Attendance: UNATNDD
Wind indicator: yes
Segmented circle: no

Heliport Communications

WX ASOS at DYL (3 nm N): 118.875 (215-345-0392)
WX AWOS-3 at CKZ (9 nm NW): 126.325 (215-257-7291)
WX AWOS-3 at LOM (10 nm SW): 118.925 (215-646-1068)
WX ASOS at PNE (14 nm SE): 121.15 (215-677-0146)
WX AWOS-3 at UKT (14 nm NW): 119.475 (215-538-7610)
WX ASOS at TTN (15 nm E): 126.775 (609-538-8690)
WX ASOS at PTW (19 nm W): 119.425 (610-495-0823)

Nearby radio navigation aids

VOR radial/distance  VOR name  Freq  Var
ARDr290/11.1YARDLEY VOR/DME108.2010W
PTWr088/19.4POTTSTOWN VORTAC116.5009W
SBJr236/25.6SOLBERG VOR/DME112.9010W
FJCr162/30.0ALLENTOWN VORTAC117.5010W
GXUr315/30.2MC GUIRE VORTAC110.6012W
RBVr290/30.2ROBBINSVILLE VORTAC113.8010W
ETXr135/30.3EAST TEXAS VOR/DME110.2009W
MXEr056/32.7MODENA VORTAC113.2009W
BWZr217/34.1BROADWAY VOR/DME114.2011W
OODr021/39.7WOODSTOWN VORTAC112.8010W

 
NDB name  Hdg/Dist  Freq  Var  ID
AMBLER046/11.627512WING .. -. --.
LAKEHURST302/39.939611WNEL -. . .-..

Heliport Services

Runway Information

Helipad H1

Dimensions: 75 x 75 ft. / 23 x 23 m
Surface: turf, in good condition
Traffic pattern: leftleft

Heliport Ownership and Management from official FAA records

Ownership: Privately-owned
Owner: ROBT CAMPBELL
236 WELLS RD
DOYLESTOWN, PA 18901
Phone 215-348-8661
Manager: ROBT CAMPBELL
236 WELLS RD
DOYLESTOWN, PA 18901
Phone 267-718-0342

Heliport Operational Statistics

Aircraft based on the field: 1
Helicopters: 1
    

Additional Remarks

ALL FLT OPNS CONDUCTED OVR THE PARK. AVOID RES AREAS FOR NOISE ABATEMENT.
FOR CD CTC PHILADELPHIA APCH AT 800-354-9884.

Instrument Procedures

There are no published instrument procedures at PN28.

Some nearby airports with instrument procedures:

KDYL - Doylestown Airport (3 nm N)
KCKZ - Pennridge Airport (9 nm NW)
KLOM - Wings Field Airport (10 nm SW)
KPNE - Northeast Philadelphia Airport (14 nm SE)
N10 - Perkiomen Valley Airport (14 nm W)
KUKT - Quakertown Airport (14 nm NW)
KTTN - Trenton Mercer Airport (15 nm E)
N40 - Sky Manor Airport (18 nm NE)
N85 - Alexandria Airport (19 nm N)
KPTW - Heritage Field Airport (19 nm W)
 
Loc | Ops | Rwys | IFR | FBO | Links
Com | Nav | Svcs | Stats | Notes
Area around PN28 (Campbell's Heliport)
 
Road maps at: MapQuest Bing Google
 
Aerial photo
WARNING: Photo may not be current or correct
Aerial photo of PN28 (Campbell's Heliport)
Do you have a better or more recent aerial photo of Campbell's Heliport that you would like to share? If so, please send us your photo.

 
Sectional chart

 
Airport distance calculator
Flying to Campbell's Heliport? Find the distance to fly.

From to PN28

Sunrise and sunset
Times for 21-Jan-2020
 Local
(UTC-5)
 Zulu
(UTC)
Morning civil twilight06:5011:50
Sunrise07:1912:19
Sunset17:0522:05
Evening civil twilight17:3422:34

Current date and time
Zulu (UTC)  21-Jan-2020 12:07:39
Local (UTC-5)  21-Jan-2020 07:07:39
 
METAR
KDYL 
3nm NE 
211154Z AUTO 00000KT 10SM CLR M09/M14 A3043 RMK AO2 SLP318 T10941144 11067 21100 53014
KCKZ 
9nm NW 
211155Z AUTO 00000KT 10SM CLR M10/M14 A3044 RMK AO2
KLOM 
10nm SW 
211155Z AUTO 30004KT 10SM CLR M09/M14 A3046 RMK AO2 T10861142 11064 21090
KPNE 
14nm SE 
211154Z 31004KT 10SM CLR M07/M14 A3048 RMK AO2 SLP322 T10671139 11056 21067 53014 $
KUKT 
14nm NW 
211155Z AUTO 00000KT 10SM CLR M11/M14 A3044 RMK A01
KTTN 
15nm E 
ASOS 133.70 609-538-8690
211153Z 30004KT 10SM CLR M08/M14 A3045 RMK AO2 SLP308 T10831144 11067 21089 53015 $
KPTW 
19nm W 
211154Z AUTO 30004KT 10SM CLR M11/M15 A3047 RMK AO2 SLP320 T11061150 11078 21111 53013 $
TAF
KPNE 
14nm SE 
210520Z 2106/2206 36006KT P6SM SKC FM211600 32009KT P6SM SKC FM220000 35003KT P6SM FEW250
KTTN 
15nm E 
210520Z 2106/2206 34008KT P6SM SKC FM220000 35003KT P6SM FEW250
NOTAMs
Click for the latest NOTAMs
NOTAMs are issued by the DoD/FAA and will open in a separate window not controlled by AirNav.

 

 
 

Would you like to see your business listed on this page?

 If your business provides an interesting product or service to pilots, flight crews, aircraft, or users of the Campbell's Heliport, you should consider listing it here.  To start the listing process, click on the button below
 
Add a business
 

Other Pages about Campbell's Heliport

Update a link
 
Copyright © AirNav, LLC. All rights reserved. Privacy Policy  Contact